sensor_id;sensor_type;location;lat;lon;timestamp;pressure;altitude;pressure_sealevel;temperature;humidity
23953;BME280;12163;49.316;6.092;2022-12-07T00:01:16;99723.63;;;3.51;79.16
23953;BME280;12163;49.316;6.092;2022-12-07T00:03:44;99715.16;;;3.43;79.70
23953;BME280;12163;49.316;6.092;2022-12-07T00:06:13;99704.97;;;3.40;79.70
23953;BME280;12163;49.316;6.092;2022-12-07T00:08:40;99698.00;;;3.39;80.21
23953;BME280;12163;49.316;6.092;2022-12-07T00:11:09;99691.72;;;3.45;80.04
23953;BME280;12163;49.316;6.092;2022-12-07T00:13:36;99704.25;;;3.56;80.56
23953;BME280;12163;49.316;6.092;2022-12-07T00:16:07;99709.78;;;3.66;80.58
23953;BME280;12163;49.316;6.092;2022-12-07T00:18:34;99710.13;;;3.69;80.08
23953;BME280;12163;49.316;6.092;2022-12-07T00:21:03;99709.28;;;3.69;79.91
23953;BME280;12163;49.316;6.092;2022-12-07T00:23:30;99708.81;;;3.72;80.08
23953;BME280;12163;49.316;6.092;2022-12-07T00:28:32;99711.22;;;3.85;80.03
23953;BME280;12163;49.316;6.092;2022-12-07T00:31:04;99694.81;;;3.93;80.25
23953;BME280;12163;49.316;6.092;2022-12-07T00:33:32;99701.41;;;4.02;80.28
23953;BME280;12163;49.316;6.092;2022-12-07T00:36:00;99711.69;;;4.10;80.28
23953;BME280;12163;49.316;6.092;2022-12-07T00:38:29;99701.34;;;4.13;80.11
23953;BME280;12163;49.316;6.092;2022-12-07T00:41:01;99702.16;;;4.14;79.73
23953;BME280;12163;49.316;6.092;2022-12-07T00:43:29;99694.22;;;4.19;79.83
23953;BME280;12163;49.316;6.092;2022-12-07T00:45:56;99695.38;;;4.23;79.68
23953;BME280;12163;49.316;6.092;2022-12-07T00:48:23;99686.63;;;4.27;80.22
23953;BME280;12163;49.316;6.092;2022-12-07T00:50:50;99680.56;;;4.32;79.70
23953;BME280;12163;49.316;6.092;2022-12-07T00:53:17;99682.84;;;4.40;79.57
23953;BME280;12163;49.316;6.092;2022-12-07T00:55:44;99681.28;;;4.44;79.42
23953;BME280;12163;49.316;6.092;2022-12-07T00:58:11;99679.22;;;4.46;79.50
23953;BME280;12163;49.316;6.092;2022-12-07T01:00:41;99676.84;;;4.49;79.44
23953;BME280;12163;49.316;6.092;2022-12-07T01:03:09;99669.16;;;4.53;79.25
23953;BME280;12163;49.316;6.092;2022-12-07T01:05:36;99677.50;;;4.56;78.85
23953;BME280;12163;49.316;6.092;2022-12-07T01:08:03;99674.03;;;4.56;78.56
23953;BME280;12163;49.316;6.092;2022-12-07T01:10:30;99667.88;;;4.55;78.76
23953;BME280;12163;49.316;6.092;2022-12-07T01:12:58;99670.28;;;4.57;78.55
23953;BME280;12163;49.316;6.092;2022-12-07T01:15:25;99670.84;;;4.59;78.84
23953;BME280;12163;49.316;6.092;2022-12-07T01:17:53;99668.75;;;4.61;78.73
23953;BME280;12163;49.316;6.092;2022-12-07T01:20:21;99672.81;;;4.63;78.26
23953;BME280;12163;49.316;6.092;2022-12-07T01:22:48;99666.75;;;4.68;77.77
23953;BME280;12163;49.316;6.092;2022-12-07T01:25:14;99657.19;;;4.72;77.79
23953;BME280;12163;49.316;6.092;2022-12-07T01:27:41;99660.41;;;4.74;77.82
23953;BME280;12163;49.316;6.092;2022-12-07T01:30:09;99656.75;;;4.80;77.86
23953;BME280;12163;49.316;6.092;2022-12-07T01:32:36;99656.25;;;4.83;77.63
23953;BME280;12163;49.316;6.092;2022-12-07T01:35:03;99658.44;;;4.86;77.81
23953;BME280;12163;49.316;6.092;2022-12-07T01:37:36;99662.16;;;4.85;77.33
23953;BME280;12163;49.316;6.092;2022-12-07T01:40:07;99653.59;;;4.83;76.93
23953;BME280;12163;49.316;6.092;2022-12-07T01:42:34;99659.44;;;4.80;77.09
23953;BME280;12163;49.316;6.092;2022-12-07T01:45:39;99669.00;;;4.76;77.25
23953;BME280;12163;49.316;6.092;2022-12-07T01:48:09;99658.88;;;4.78;77.31
23953;BME280;12163;49.316;6.092;2022-12-07T01:50:38;99658.03;;;4.77;77.38
23953;BME280;12163;49.316;6.092;2022-12-07T01:53:09;99654.56;;;4.77;76.94
23953;BME280;12163;49.316;6.092;2022-12-07T01:55:38;99656.19;;;4.78;77.10
23953;BME280;12163;49.316;6.092;2022-12-07T01:58:07;99648.72;;;4.80;77.61
23953;BME280;12163;49.316;6.092;2022-12-07T02:00:34;99648.72;;;4.80;77.29
23953;BME280;12163;49.316;6.092;2022-12-07T02:03:24;99658.31;;;4.76;77.11
23953;BME280;12163;49.316;6.092;2022-12-07T02:05:54;99657.47;;;4.75;77.22
23953;BME280;12163;49.316;6.092;2022-12-07T02:08:21;99654.50;;;4.72;77.20
23953;BME280;12163;49.316;6.092;2022-12-07T02:10:48;99660.81;;;4.66;77.33
23953;BME280;12163;49.316;6.092;2022-12-07T02:13:26;99658.63;;;4.63;77.51
23953;BME280;12163;49.316;6.092;2022-12-07T02:16:14;99654.59;;;4.60;77.39
23953;BME280;12163;49.316;6.092;2022-12-07T02:26:51;99636.44;;;4.62;78.51
23953;BME280;12163;49.316;6.092;2022-12-07T02:29:23;99639.69;;;4.64;78.03
23953;BME280;12163;49.316;6.092;2022-12-07T02:32:04;99644.75;;;4.66;78.59
23953;BME280;12163;49.316;6.092;2022-12-07T02:34:47;99642.91;;;4.66;78.29
23953;BME280;12163;49.316;6.092;2022-12-07T02:37:33;99623.88;;;4.63;78.45
23953;BME280;12163;49.316;6.092;2022-12-07T02:40:16;99631.91;;;4.63;78.78
23953;BME280;12163;49.316;6.092;2022-12-07T02:42:50;99620.72;;;4.66;78.54
23953;BME280;12163;49.316;6.092;2022-12-07T02:45:22;99630.38;;;4.67;78.73
23953;BME280;12163;49.316;6.092;2022-12-07T02:47:53;99629.78;;;4.65;78.75
23953;BME280;12163;49.316;6.092;2022-12-07T02:50:21;99635.13;;;4.65;78.93
23953;BME280;12163;49.316;6.092;2022-12-07T02:52:48;99628.16;;;4.64;78.78
23953;BME280;12163;49.316;6.092;2022-12-07T02:55:17;99618.81;;;4.61;79.29
23953;BME280;12163;49.316;6.092;2022-12-07T03:00:28;99621.47;;;4.61;79.52
23953;BME280;12163;49.316;6.092;2022-12-07T03:03:04;99622.03;;;4.63;79.11
23953;BME280;12163;49.316;6.092;2022-12-07T03:05:58;99620.09;;;4.59;79.44
23953;BME280;12163;49.316;6.092;2022-12-07T03:08:49;99622.75;;;4.59;79.87
23953;BME280;12163;49.316;6.092;2022-12-07T03:11:50;99630.78;;;4.59;80.15
23953;BME280;12163;49.316;6.092;2022-12-07T03:14:29;99631.91;;;4.63;80.39
23953;BME280;12163;49.316;6.092;2022-12-07T03:17:14;99619.91;;;4.65;80.16
23953;BME280;12163;49.316;6.092;2022-12-07T03:19:44;99623.47;;;4.71;79.87
23953;BME280;12163;49.316;6.092;2022-12-07T03:22:13;99619.19;;;4.70;80.01
23953;BME280;12163;49.316;6.092;2022-12-07T03:24:51;99615.97;;;4.68;79.82
23953;BME280;12163;49.316;6.092;2022-12-07T03:27:25;99628.28;;;4.69;79.85
23953;BME280;12163;49.316;6.092;2022-12-07T03:29:57;99622.44;;;4.72;80.04
23953;BME280;12163;49.316;6.092;2022-12-07T03:32:31;99626.22;;;4.76;80.13
23953;BME280;12163;49.316;6.092;2022-12-07T03:35:09;99622.16;;;4.73;79.72
23953;BME280;12163;49.316;6.092;2022-12-07T03:38:00;99620.31;;;4.74;79.76
23953;BME280;12163;49.316;6.092;2022-12-07T03:40:40;99617.00;;;4.67;79.71
23953;BME280;12163;49.316;6.092;2022-12-07T03:43:11;99623.16;;;4.67;79.23
23953;BME280;12163;49.316;6.092;2022-12-07T03:45:44;99611.66;;;4.67;79.44
23953;BME280;12163;49.316;6.092;2022-12-07T03:48:24;99615.88;;;4.63;79.76
23953;BME280;12163;49.316;6.092;2022-12-07T03:51:00;99610.44;;;4.58;79.75
23953;BME280;12163;49.316;6.092;2022-12-07T03:53:38;99611.28;;;4.58;79.76
23953;BME280;12163;49.316;6.092;2022-12-07T03:56:07;99610.22;;;4.59;79.41
23953;BME280;12163;49.316;6.092;2022-12-07T03:58:35;99609.81;;;4.51;79.75
23953;BME280;12163;49.316;6.092;2022-12-07T04:01:02;99607.88;;;4.46;80.21
23953;BME280;12163;49.316;6.092;2022-12-07T04:03:29;99611.03;;;4.43;80.26
23953;BME280;12163;49.316;6.092;2022-12-07T04:05:56;99603.75;;;4.39;80.64
23953;BME280;12163;49.316;6.092;2022-12-07T04:08:24;99609.00;;;4.34;80.32
23953;BME280;12163;49.316;6.092;2022-12-07T04:10:51;99606.84;;;4.31;80.50
23953;BME280;12163;49.316;6.092;2022-12-07T04:13:17;99617.25;;;4.32;80.99
23953;BME280;12163;49.316;6.092;2022-12-07T04:15:44;99606.84;;;4.31;80.63
23953;BME280;12163;49.316;6.092;2022-12-07T04:18:10;99608.44;;;4.32;80.65
23953;BME280;12163;49.316;6.092;2022-12-07T04:20:37;99610.88;;;4.33;80.81
23953;BME280;12163;49.316;6.092;2022-12-07T04:23:04;99609.56;;;4.36;80.89
23953;BME280;12163;49.316;6.092;2022-12-07T04:25:30;99604.22;;;4.36;81.34
23953;BME280;12163;49.316;6.092;2022-12-07T04:27:57;99596.78;;;4.38;81.41
23953;BME280;12163;49.316;6.092;2022-12-07T04:30:24;99595.16;;;4.37;81.12
23953;BME280;12163;49.316;6.092;2022-12-07T04:32:50;99600.50;;;4.37;81.03
23953;BME280;12163;49.316;6.092;2022-12-07T04:35:17;99598.31;;;4.34;81.50
23953;BME280;12163;49.316;6.092;2022-12-07T04:37:43;99596.72;;;4.33;81.05
23953;BME280;12163;49.316;6.092;2022-12-07T04:40:11;99592.41;;;4.32;81.27
23953;BME280;12163;49.316;6.092;2022-12-07T04:42:39;99604.72;;;4.33;81.56
23953;BME280;12163;49.316;6.092;2022-12-07T04:45:06;99596.22;;;4.36;81.39
23953;BME280;12163;49.316;6.092;2022-12-07T04:47:32;99597.03;;;4.36;81.37
23953;BME280;12163;49.316;6.092;2022-12-07T04:49:59;99599.72;;;4.36;81.02
23953;BME280;12163;49.316;6.092;2022-12-07T04:52:26;99590.88;;;4.36;81.01
23953;BME280;12163;49.316;6.092;2022-12-07T04:54:53;99604.22;;;4.36;81.34
23953;BME280;12163;49.316;6.092;2022-12-07T04:57:19;99598.31;;;4.34;81.37
23953;BME280;12163;49.316;6.092;2022-12-07T04:59:46;99604.72;;;4.33;81.23
23953;BME280;12163;49.316;6.092;2022-12-07T05:02:12;99595.66;;;4.34;81.46
23953;BME280;12163;49.316;6.092;2022-12-07T05:04:39;99595.09;;;4.32;81.57
23953;BME280;12163;49.316;6.092;2022-12-07T05:07:06;99594.53;;;4.30;81.25
23953;BME280;12163;49.316;6.092;2022-12-07T05:09:32;99597.19;;;4.30;81.25
23953;BME280;12163;49.316;6.092;2022-12-07T05:11:59;99589.75;;;4.32;81.97
23953;BME280;12163;49.316;6.092;2022-12-07T05:14:25;99585.53;;;4.36;81.52
23953;BME280;12163;49.316;6.092;2022-12-07T05:16:52;99591.94;;;4.35;81.93
23953;BME280;12163;49.316;6.092;2022-12-07T05:19:20;99597.59;;;4.38;81.92
23953;BME280;12163;49.316;6.092;2022-12-07T05:21:47;99589.81;;;4.37;81.49
23953;BME280;12163;49.316;6.092;2022-12-07T05:24:15;99593.88;;;4.39;81.60
23953;BME280;12163;49.316;6.092;2022-12-07T05:26:42;99584.47;;;4.37;81.99
23953;BME280;12163;49.316;6.092;2022-12-07T05:29:13;99582.88;;;4.36;82.02
23953;BME280;12163;49.316;6.092;2022-12-07T05:31:41;99587.72;;;4.39;82.06
23953;BME280;12163;49.316;6.092;2022-12-07T05:34:08;99581.25;;;4.35;81.95
23953;BME280;12163;49.316;6.092;2022-12-07T05:36:35;99581.00;;;4.36;81.99
23953;BME280;12163;49.316;6.092;2022-12-07T05:39:02;99587.16;;;4.37;82.07
23953;BME280;12163;49.316;6.092;2022-12-07T05:41:28;99591.44;;;4.38;82.48
23953;BME280;12163;49.316;6.092;2022-12-07T05:44:14;99587.16;;;4.37;82.11
23953;BME280;12163;49.316;6.092;2022-12-07T05:46:40;99594.38;;;4.36;82.41
23953;BME280;12163;49.316;6.092;2022-12-07T05:49:07;99587.16;;;4.37;82.75
23953;BME280;12163;49.316;6.092;2022-12-07T05:51:34;99584.38;;;4.48;83.45
23953;BME280;12163;49.316;6.092;2022-12-07T05:54:00;99581.31;;;5.15;84.20
23953;BME280;12163;49.316;6.092;2022-12-07T05:56:27;99574.84;;;5.59;83.04
23953;BME280;12163;49.316;6.092;2022-12-07T05:58:54;99577.50;;;5.81;80.95
23953;BME280;12163;49.316;6.092;2022-12-07T06:01:39;99573.47;;;5.78;79.28
23953;BME280;12163;49.316;6.092;2022-12-07T06:04:06;99569.13;;;5.51;79.07
23953;BME280;12163;49.316;6.092;2022-12-07T06:06:33;99572.38;;;5.31;79.37
23953;BME280;12163;49.316;6.092;2022-12-07T06:08:59;99575.00;;;5.26;80.24
23953;BME280;12163;49.316;6.092;2022-12-07T06:11:26;99571.66;;;5.14;79.17
23953;BME280;12163;49.316;6.092;2022-12-07T06:14:11;99573.81;;;4.96;79.81
23953;BME280;12163;49.316;6.092;2022-12-07T06:16:38;99579.94;;;4.92;80.49
23953;BME280;12163;49.316;6.092;2022-12-07T06:19:04;99583.41;;;4.92;80.40
23953;BME280;12163;49.316;6.092;2022-12-07T06:21:31;99577.63;;;4.79;80.48
23953;BME280;12163;49.316;6.092;2022-12-07T06:23:58;99590.09;;;4.73;80.91
23953;BME280;12163;49.316;6.092;2022-12-07T06:26:24;99579.22;;;4.80;81.00
23953;BME280;12163;49.316;6.092;2022-12-07T06:28:51;99586.63;;;4.73;81.35
23953;BME280;12163;49.316;6.092;2022-12-07T06:31:18;99592.47;;;4.70;81.66
23953;BME280;12163;49.316;6.092;2022-12-07T06:33:44;99590.06;;;4.90;82.31
23953;BME280;12163;49.316;6.092;2022-12-07T06:36:11;99582.91;;;4.95;81.12
23953;BME280;12163;49.316;6.092;2022-12-07T06:38:38;99586.91;;;4.93;81.40
23953;BME280;12163;49.316;6.092;2022-12-07T06:41:05;99577.75;;;4.89;81.09
23953;BME280;12163;49.316;6.092;2022-12-07T06:43:32;99587.97;;;4.92;82.11
23953;BME280;12163;49.316;6.092;2022-12-07T06:45:59;99584.91;;;5.04;81.71
23953;BME280;12163;49.316;6.092;2022-12-07T06:48:26;99591.31;;;5.03;80.85
23953;BME280;12163;49.316;6.092;2022-12-07T06:50:52;99584.41;;;4.86;81.01
23953;BME280;12163;49.316;6.092;2022-12-07T06:53:21;99587.69;;;4.72;81.54
23953;BME280;12163;49.316;6.092;2022-12-07T06:55:48;99577.88;;;4.61;82.29
23953;BME280;12163;49.316;6.092;2022-12-07T06:58:15;99576.22;;;4.55;82.46
23953;BME280;12163;49.316;6.092;2022-12-07T07:00:42;99584.94;;;4.50;82.73
23953;BME280;12163;49.316;6.092;2022-12-07T07:03:09;99583.59;;;4.48;83.42
23953;BME280;12163;49.316;6.092;2022-12-07T07:05:35;99577.69;;;4.46;82.80
23953;BME280;12163;49.316;6.092;2022-12-07T07:08:03;99585.13;;;4.44;83.21
23953;BME280;12163;49.316;6.092;2022-12-07T07:10:47;99586.75;;;4.45;83.68
23953;BME280;12163;49.316;6.092;2022-12-07T07:13:14;99581.41;;;4.45;83.58
23953;BME280;12163;49.316;6.092;2022-12-07T07:15:41;99590.56;;;4.49;83.65
23953;BME280;12163;49.316;6.092;2022-12-07T07:18:07;99595.97;;;4.54;83.61
23953;BME280;12163;49.316;6.092;2022-12-07T07:20:34;99601.88;;;4.56;83.48
23953;BME280;12163;49.316;6.092;2022-12-07T07:23:00;99605.66;;;4.60;83.49
23953;BME280;12163;49.316;6.092;2022-12-07T07:25:27;99609.41;;;4.59;83.52
23953;BME280;12163;49.316;6.092;2022-12-07T07:27:54;99611.50;;;4.57;83.82
23953;BME280;12163;49.316;6.092;2022-12-07T07:30:21;99594.69;;;4.56;83.52
23953;BME280;12163;49.316;6.092;2022-12-07T07:32:48;99605.66;;;4.60;83.77
23953;BME280;12163;49.316;6.092;2022-12-07T07:35:14;99611.06;;;4.65;83.95
23953;BME280;12163;49.316;6.092;2022-12-07T07:37:41;99607.13;;;4.67;83.35
23953;BME280;12163;49.316;6.092;2022-12-07T07:40:09;99609.84;;;4.72;83.44
23953;BME280;12163;49.316;6.092;2022-12-07T07:42:36;99621.66;;;4.76;83.28
23953;BME280;12163;49.316;6.092;2022-12-07T07:45:03;99622.00;;;4.80;83.50
23953;BME280;12163;49.316;6.092;2022-12-07T07:47:30;99620.94;;;4.81;83.36
23953;BME280;12163;49.316;6.092;2022-12-07T07:49:57;99618.03;;;4.82;83.29
23953;BME280;12163;49.316;6.092;2022-12-07T07:52:24;99622.06;;;4.85;83.32
23953;BME280;12163;49.316;6.092;2022-12-07T07:54:51;99619.38;;;4.85;83.66
23953;BME280;12163;49.316;6.092;2022-12-07T07:57:17;99620.44;;;4.84;83.28
23953;BME280;12163;49.316;6.092;2022-12-07T07:59:44;99631.69;;;4.86;83.46
23953;BME280;12163;49.316;6.092;2022-12-07T08:02:16;99621.00;;;4.86;83.57
23953;BME280;12163;49.316;6.092;2022-12-07T08:04:44;99627.66;;;4.83;83.28
23953;BME280;12163;49.316;6.092;2022-12-07T08:07:11;99638.38;;;4.83;83.47
23953;BME280;12163;49.316;6.092;2022-12-07T08:09:38;99635.44;;;4.85;83.23
23953;BME280;12163;49.316;6.092;2022-12-07T08:12:05;99635.44;;;4.85;83.28
23953;BME280;12163;49.316;6.092;2022-12-07T08:14:32;99634.88;;;4.83;83.50
23953;BME280;12163;49.316;6.092;2022-12-07T08:17:00;99641.84;;;4.84;83.54
23953;BME280;12163;49.316;6.092;2022-12-07T08:19:27;99643.44;;;4.85;83.50
23953;BME280;12163;49.316;6.092;2022-12-07T08:21:54;99646.94;;;4.85;83.84
23953;BME280;12163;49.316;6.092;2022-12-07T08:24:23;99648.06;;;4.89;83.47
23953;BME280;12163;49.316;6.092;2022-12-07T08:26:51;99643.53;;;4.90;83.38
23953;BME280;12163;49.316;6.092;2022-12-07T08:29:18;99642.00;;;4.93;83.06
23953;BME280;12163;49.316;6.092;2022-12-07T08:31:45;99649.53;;;4.96;82.90
23953;BME280;12163;49.316;6.092;2022-12-07T08:34:12;99644.72;;;4.98;83.21
23953;BME280;12163;49.316;6.092;2022-12-07T08:36:39;99644.00;;;5.03;82.63
23953;BME280;12163;49.316;6.092;2022-12-07T08:39:06;99652.09;;;5.08;82.42
23953;BME280;12163;49.316;6.092;2022-12-07T08:41:52;99645.19;;;5.12;82.80
23953;BME280;12163;49.316;6.092;2022-12-07T08:44:19;99646.56;;;5.14;81.35
23953;BME280;12163;49.316;6.092;2022-12-07T08:46:50;99655.16;;;5.16;80.87
23953;BME280;12163;49.316;6.092;2022-12-07T08:49:24;99658.72;;;5.22;80.17
23953;BME280;12163;49.316;6.092;2022-12-07T08:51:52;99653.09;;;5.23;80.02
23953;BME280;12163;49.316;6.092;2022-12-07T08:54:19;99655.03;;;5.28;79.46
23953;BME280;12163;49.316;6.092;2022-12-07T08:56:47;99660.94;;;5.30;79.36
23953;BME280;12163;49.316;6.092;2022-12-07T08:59:22;99660.66;;;5.31;78.45
23953;BME280;12163;49.316;6.092;2022-12-07T09:01:49;99660.75;;;5.36;79.13
23953;BME280;12163;49.316;6.092;2022-12-07T09:04:16;99657.31;;;5.41;78.63
23953;BME280;12163;49.316;6.092;2022-12-07T09:06:42;99652.28;;;5.44;78.65
23953;BME280;12163;49.316;6.092;2022-12-07T09:09:10;99656.06;;;5.48;77.75
23953;BME280;12163;49.316;6.092;2022-12-07T09:11:37;99656.13;;;5.53;78.29
23953;BME280;12163;49.316;6.092;2022-12-07T09:14:05;99657.28;;;5.57;78.20
23953;BME280;12163;49.316;6.092;2022-12-07T09:16:32;99660.50;;;5.59;78.17
23953;BME280;12163;49.316;6.092;2022-12-07T09:18:59;99659.19;;;5.62;77.53
23953;BME280;12163;49.316;6.092;2022-12-07T09:21:26;99658.69;;;5.65;77.31
23953;BME280;12163;49.316;6.092;2022-12-07T09:23:52;99657.69;;;5.71;77.58
23953;BME280;12163;49.316;6.092;2022-12-07T09:26:19;99655.84;;;5.76;77.20
23953;BME280;12163;49.316;6.092;2022-12-07T09:28:45;99662.38;;;5.80;76.22
23953;BME280;12163;49.316;6.092;2022-12-07T09:31:12;99659.19;;;5.83;76.47
23953;BME280;12163;49.316;6.092;2022-12-07T09:33:58;99659.44;;;5.82;76.42
23953;BME280;12163;49.316;6.092;2022-12-07T09:36:25;99657.69;;;5.92;75.99
23953;BME280;12163;49.316;6.092;2022-12-07T09:38:53;99641.16;;;6.00;75.85
23953;BME280;12163;49.316;6.092;2022-12-07T09:41:20;99655.41;;;6.06;75.48
23953;BME280;12163;49.316;6.092;2022-12-07T09:43:48;99648.22;;;6.11;75.82
23953;BME280;12163;49.316;6.092;2022-12-07T09:46:16;99652.56;;;6.17;75.35
23953;BME280;12163;49.316;6.092;2022-12-07T09:48:46;99643.53;;;6.23;75.26
23953;BME280;12163;49.316;6.092;2022-12-07T09:51:19;99641.97;;;6.27;74.58
23953;BME280;12163;49.316;6.092;2022-12-07T09:53:52;99643.06;;;6.31;73.92
23953;BME280;12163;49.316;6.092;2022-12-07T09:56:19;99640.41;;;6.36;74.21
23953;BME280;12163;49.316;6.092;2022-12-07T09:58:48;99637.75;;;6.41;73.71
23953;BME280;12163;49.316;6.092;2022-12-07T10:01:20;99634.09;;;6.47;73.39
23953;BME280;12163;49.316;6.092;2022-12-07T10:03:52;99629.28;;;6.49;73.00
23953;BME280;12163;49.316;6.092;2022-12-07T10:06:19;99621.25;;;6.54;73.06
23953;BME280;12163;49.316;6.092;2022-12-07T10:08:47;99616.75;;;6.60;72.90
23953;BME280;12163;49.316;6.092;2022-12-07T10:11:14;99619.22;;;6.66;72.90
23953;BME280;12163;49.316;6.092;2022-12-07T10:13:52;99621.94;;;6.71;72.36
23953;BME280;12163;49.316;6.092;2022-12-07T10:18:55;99628.94;;;6.82;71.35
23953;BME280;12163;49.316;6.092;2022-12-07T10:21:23;99613.13;;;6.80;71.15
23953;BME280;12163;49.316;6.092;2022-12-07T10:26:36;99608.25;;;6.72;70.03
23953;BME280;12163;49.316;6.092;2022-12-07T10:32:06;99608.97;;;6.63;69.02
23953;BME280;12163;49.316;6.092;2022-12-07T10:34:35;99600.69;;;6.64;68.71
23953;BME280;12163;49.316;6.092;2022-12-07T10:39:55;99599.38;;;6.67;68.58
23953;BME280;12163;49.316;6.092;2022-12-07T10:42:24;99599.13;;;6.73;69.11
23953;BME280;12163;49.316;6.092;2022-12-07T10:47:45;99589.00;;;6.80;69.35
23953;BME280;12163;49.316;6.092;2022-12-07T11:01:50;99575.34;;;6.87;68.45
23953;BME280;12163;49.316;6.092;2022-12-07T11:07:26;99571.59;;;6.88;68.28
23953;BME280;12163;49.316;6.092;2022-12-07T11:10:23;99571.59;;;6.88;68.83
23953;BME280;12163;49.316;6.092;2022-12-07T11:19:00;99564.97;;;7.00;69.31
23953;BME280;12163;49.316;6.092;2022-12-07T11:37:33;99541.16;;;7.14;68.61
23953;BME280;12163;49.316;6.092;2022-12-07T11:42:40;99534.94;;;7.03;69.16
23953;BME280;12163;49.316;6.092;2022-12-07T11:45:17;99535.19;;;7.07;69.45
23953;BME280;12163;49.316;6.092;2022-12-07T11:48:12;99529.31;;;7.10;68.81
23953;BME280;12163;49.316;6.092;2022-12-07T11:50:42;99525.00;;;7.09;69.07
23953;BME280;12163;49.316;6.092;2022-12-07T11:53:18;99528.50;;;7.09;69.43
23953;BME280;12163;49.316;6.092;2022-12-07T11:56:02;99518.56;;;7.05;68.69
23953;BME280;12163;49.316;6.092;2022-12-07T11:58:59;99515.84;;;7.00;68.67
23953;BME280;12163;49.316;6.092;2022-12-07T12:06:37;99520.09;;;6.86;68.23
23953;BME280;12163;49.316;6.092;2022-12-07T12:09:24;99510.41;;;6.75;68.51
23953;BME280;12163;49.316;6.092;2022-12-07T12:15:28;99515.19;;;6.68;68.95
23953;BME280;12163;49.316;6.092;2022-12-07T12:20:54;99518.13;;;6.66;69.08
23953;BME280;12163;49.316;6.092;2022-12-07T12:25:54;99516.06;;;6.78;67.96
23953;BME280;12163;49.316;6.092;2022-12-07T12:31:16;99510.94;;;6.77;68.01
23953;BME280;12163;49.316;6.092;2022-12-07T12:33:47;99517.13;;;6.77;67.91
23953;BME280;12163;49.316;6.092;2022-12-07T12:39:16;99513.09;;;6.80;67.60
23953;BME280;12163;49.316;6.092;2022-12-07T12:47:03;99500.25;;;6.87;67.58
23953;BME280;12163;49.316;6.092;2022-12-07T12:49:41;99506.19;;;6.89;67.41
23953;BME280;12163;49.316;6.092;2022-12-07T12:57:36;99489.50;;;6.87;68.49
23953;BME280;12163;49.316;6.092;2022-12-07T13:02:54;99487.34;;;6.84;68.59
23953;BME280;12163;49.316;6.092;2022-12-07T13:05:23;99486.28;;;6.85;69.53
23953;BME280;12163;49.316;6.092;2022-12-07T13:08:14;99479.31;;;6.84;69.50
23953;BME280;12163;49.316;6.092;2022-12-07T13:10:45;99482.03;;;6.89;69.81
23953;BME280;12163;49.316;6.092;2022-12-07T13:21:00;99467.47;;;6.75;70.27
23953;BME280;12163;49.316;6.092;2022-12-07T13:23:55;99454.06;;;6.70;69.86
23953;BME280;12163;49.316;6.092;2022-12-07T13:29:12;99451.88;;;6.62;70.95
23953;BME280;12163;49.316;6.092;2022-12-07T13:31:43;99445.97;;;6.65;70.88
23953;BME280;12163;49.316;6.092;2022-12-07T13:34:40;99448.66;;;6.65;70.92
23953;BME280;12163;49.316;6.092;2022-12-07T13:39:35;99440.13;;;6.68;71.14
23953;BME280;12163;49.316;6.092;2022-12-07T13:42:26;99436.38;;;6.69;71.58
23953;BME280;12163;49.316;6.092;2022-12-07T13:44:53;99435.00;;;6.71;71.14
23953;BME280;12163;49.316;6.092;2022-12-07T13:47:36;99439.84;;;6.74;71.29
23953;BME280;12163;49.316;6.092;2022-12-07T13:50:28;99437.44;;;6.73;70.66
23953;BME280;12163;49.316;6.092;2022-12-07T13:52:59;99433.94;;;6.72;71.23
23953;BME280;12163;49.316;6.092;2022-12-07T13:55:27;99441.47;;;6.75;70.98
23953;BME280;12163;49.316;6.092;2022-12-07T13:57:54;99440.13;;;6.73;71.25
23953;BME280;12163;49.316;6.092;2022-12-07T14:00:24;99449.78;;;6.74;71.17
23953;BME280;12163;49.316;6.092;2022-12-07T14:05:27;99445.16;;;6.60;71.23
23953;BME280;12163;49.316;6.092;2022-12-07T14:10:34;99441.41;;;6.56;71.44
23953;BME280;12163;49.316;6.092;2022-12-07T14:13:03;99430.38;;;6.52;71.41
23953;BME280;12163;49.316;6.092;2022-12-07T14:15:50;99430.91;;;6.49;71.66
23953;BME280;12163;49.316;6.092;2022-12-07T14:18:36;99425.28;;;6.51;71.40
23953;BME280;12163;49.316;6.092;2022-12-07T14:23:38;99432.28;;;6.57;71.10
23953;BME280;12163;49.316;6.092;2022-12-07T14:26:18;99429.31;;;6.48;71.24
23953;BME280;12163;49.316;6.092;2022-12-07T14:28:46;99417.22;;;6.46;71.52
23953;BME280;12163;49.316;6.092;2022-12-07T14:31:18;99413.97;;;6.39;71.48
23953;BME280;12163;49.316;6.092;2022-12-07T14:33:59;99401.88;;;6.31;71.81
23953;BME280;12163;49.316;6.092;2022-12-07T14:36:25;99401.88;;;6.26;72.21
23953;BME280;12163;49.316;6.092;2022-12-07T14:38:52;99392.69;;;6.17;72.67
23953;BME280;12163;49.316;6.092;2022-12-07T14:41:22;99393.75;;;6.11;72.60
23953;BME280;12163;49.316;6.092;2022-12-07T14:44:12;99387.75;;;5.99;73.20
23953;BME280;12163;49.316;6.092;2022-12-07T14:46:58;99388.78;;;5.88;73.48
23953;BME280;12163;49.316;6.092;2022-12-07T14:49:45;99396.25;;;5.81;73.66
23953;BME280;12163;49.316;6.092;2022-12-07T14:52:19;99400.97;;;5.74;74.18
23953;BME280;12163;49.316;6.092;2022-12-07T14:55:18;99401.22;;;5.68;74.28
23953;BME280;12163;49.316;6.092;2022-12-07T14:57:46;99403.88;;;5.68;74.24
23953;BME280;12163;49.316;6.092;2022-12-07T15:00:14;99406.25;;;5.64;74.78
23953;BME280;12163;49.316;6.092;2022-12-07T15:02:41;99407.56;;;5.62;75.07
23953;BME280;12163;49.316;6.092;2022-12-07T15:05:08;99396.59;;;5.58;75.28
23953;BME280;12163;49.316;6.092;2022-12-07T15:07:43;99410.22;;;5.57;75.35
23953;BME280;12163;49.316;6.092;2022-12-07T15:10:17;99411.53;;;5.54;75.40
23953;BME280;12163;49.316;6.092;2022-12-07T15:12:49;99408.03;;;5.49;75.18
23953;BME280;12163;49.316;6.092;2022-12-07T15:15:16;99412.28;;;5.45;75.75
23953;BME280;12163;49.316;6.092;2022-12-07T15:17:43;99406.63;;;5.41;76.10
23953;BME280;12163;49.316;6.092;2022-12-07T15:20:14;99402.84;;;5.37;75.68
23953;BME280;12163;49.316;6.092;2022-12-07T15:22:43;99406.03;;;5.34;75.79
23953;BME280;12163;49.316;6.092;2022-12-07T15:25:13;99407.84;;;5.29;76.14
23953;BME280;12163;49.316;6.092;2022-12-07T15:27:40;99404.31;;;5.23;76.41
23953;BME280;12163;49.316;6.092;2022-12-07T16:59:44;99359.69;;;5.65;75.48